createdAt,value
2022-09-25T00:01:10.102Z,9.31
2022-09-25T00:03:38.135Z,9.42
2022-09-25T00:06:08.798Z,9.23
2022-09-25T00:08:37.079Z,9.27
2022-09-25T00:11:13.694Z,9.27
2022-09-25T00:13:42.901Z,9.12
2022-09-25T00:16:12.154Z,9.26
2022-09-25T00:18:57.992Z,9.32
2022-09-25T00:21:29.593Z,9.35
2022-09-25T00:24:05.227Z,9.17
2022-09-25T00:26:35.169Z,9.35
2022-09-25T00:29:03.195Z,9.34
2022-09-25T00:31:31.208Z,9.28
2022-09-25T00:34:01.134Z,8.76
2022-09-25T00:36:28.825Z,9.02
2022-09-25T00:38:56.152Z,9.21
2022-09-25T00:41:26.007Z,8.95
2022-09-25T00:43:56.376Z,8.93
2022-09-25T00:46:42.526Z,9.21
2022-09-25T00:49:22.021Z,9.22
2022-09-25T00:52:00.322Z,9.24
2022-09-25T00:54:31.898Z,8.98
2022-09-25T00:57:04.150Z,9.08
2022-09-25T00:59:38.980Z,8.87
2022-09-25T01:02:07.704Z,9.07
2022-09-25T01:04:38.298Z,8.99
2022-09-25T01:07:05.585Z,8.76
2022-09-25T01:09:32.724Z,8.81
2022-09-25T01:11:59.714Z,8.95
2022-09-25T01:14:27.170Z,8.98
2022-09-25T01:17:20.500Z,8.88
2022-09-25T01:20:02.292Z,8.91
2022-09-25T01:23:06.499Z,8.89
2022-09-25T01:25:45.617Z,8.87
2022-09-25T01:28:49.730Z,8.84
2022-09-25T01:31:27.700Z,8.77
2022-09-25T01:34:09.637Z,8.84
2022-09-25T01:36:41.776Z,8.78
2022-09-25T01:39:22.835Z,8.77
2022-09-25T01:41:52.523Z,8.66
2022-09-25T01:44:31.316Z,8.60
2022-09-25T01:47:15.319Z,8.46
2022-09-25T01:49:50.660Z,8.38
2022-09-25T01:52:26.093Z,8.24
2022-09-25T01:55:02.715Z,8.43
2022-09-25T01:57:38.611Z,8.40
2022-09-25T02:00:10.365Z,8.30
2022-09-25T02:02:46.585Z,8.33
2022-09-25T02:05:31.293Z,8.26
2022-09-25T02:08:06.055Z,8.17
2022-09-25T02:10:43.594Z,8.35
2022-09-25T02:13:14.517Z,8.18
2022-09-25T02:15:45.674Z,7.84
2022-09-25T02:18:36.052Z,8.17
2022-09-25T02:21:38.558Z,8.12
2022-09-25T02:24:40.571Z,8.09
2022-09-25T02:27:07.547Z,8.01
2022-09-25T02:29:35.197Z,7.62
2022-09-25T02:32:32.487Z,8.16
2022-09-25T02:35:00.574Z,7.83
2022-09-25T02:37:30.044Z,8.14
2022-09-25T02:40:01.495Z,8.15
2022-09-25T02:42:39.808Z,8.20
2022-09-25T02:45:21.633Z,8.20
2022-09-25T02:47:54.655Z,8.19
2022-09-25T02:50:54.897Z,8.12
2022-09-25T02:53:33.818Z,8.16
2022-09-25T02:56:20.892Z,7.84
2022-09-25T02:59:02.673Z,8.08
2022-09-25T03:01:33.209Z,7.83
2022-09-25T03:04:01.799Z,8.02
2022-09-25T03:06:30.503Z,7.75
2022-09-25T03:08:59.643Z,7.99
2022-09-25T03:11:27.201Z,7.76
2022-09-25T03:14:01.822Z,7.77
2022-09-25T03:16:34.904Z,8.04
2022-09-25T03:19:03.348Z,7.95
2022-09-25T03:21:30.285Z,7.86
2022-09-25T03:23:57.349Z,7.77
2022-09-25T03:26:25.227Z,7.82
2022-09-25T03:28:52.428Z,7.84
2022-09-25T03:31:20.287Z,7.81
2022-09-25T03:33:48.936Z,7.68
2022-09-25T03:36:19.178Z,7.80
2022-09-25T03:38:48.346Z,7.56
2022-09-25T03:41:20.019Z,7.52
2022-09-25T03:43:51.622Z,7.57
2022-09-25T03:46:21.773Z,7.36
2022-09-25T03:48:49.025Z,7.51
2022-09-25T03:51:16.106Z,7.29
2022-09-25T03:53:43.213Z,7.23
2022-09-25T03:56:14.027Z,7.51
2022-09-25T03:58:41.324Z,7.50
2022-09-25T04:01:08.638Z,7.50
2022-09-25T04:03:35.608Z,7.44
2022-09-25T04:06:04.965Z,7.49
2022-09-25T04:08:33.212Z,7.45
2022-09-25T04:11:00.274Z,7.31
2022-09-25T04:13:30.325Z,7.47
2022-09-25T04:15:58.770Z,7.27
2022-09-25T04:18:28.271Z,7.48
2022-09-25T04:20:55.184Z,7.30
2022-09-25T04:23:22.151Z,7.43
2022-09-25T04:25:49.851Z,7.27
2022-09-25T04:28:16.851Z,7.26
2022-09-25T04:30:43.884Z,7.34
2022-09-25T04:33:29.495Z,7.10
2022-09-25T04:35:56.994Z,7.24
2022-09-25T04:38:24.042Z,7.09
2022-09-25T04:40:51.316Z,7.07
2022-09-25T04:43:18.548Z,7.18
2022-09-25T04:45:47.469Z,7.24
2022-09-25T04:48:14.442Z,7.00
2022-09-25T04:50:48.759Z,7.22
2022-09-25T04:53:16.514Z,7.04
2022-09-25T04:55:43.498Z,6.91
2022-09-25T04:58:11.324Z,6.94
2022-09-25T05:00:39.594Z,7.02
2022-09-25T05:03:06.884Z,7.24
2022-09-25T05:05:34.002Z,7.16
2022-09-25T05:08:02.552Z,7.37
2022-09-25T05:10:32.516Z,7.31
2022-09-25T05:13:04.534Z,7.17
2022-09-25T05:15:33.469Z,7.49
2022-09-25T05:18:13.590Z,7.55
2022-09-25T05:20:40.588Z,7.75
2022-09-25T05:23:07.686Z,7.26
2022-09-25T05:25:34.730Z,7.58
2022-09-25T05:28:02.422Z,7.96
2022-09-25T05:30:31.966Z,8.02
2022-09-25T05:32:59.587Z,8.08
2022-09-25T05:35:29.070Z,7.92
2022-09-25T05:37:56.222Z,8.28
2022-09-25T05:40:24.266Z,8.37
2022-09-25T05:42:52.177Z,8.49
2022-09-25T05:45:21.271Z,8.70
2022-09-25T05:47:48.414Z,8.77
2022-09-25T05:50:17.319Z,8.88
2022-09-25T05:52:44.690Z,9.04
2022-09-25T05:55:12.144Z,9.06
2022-09-25T05:57:39.468Z,9.13
2022-09-25T06:00:10.053Z,9.01
2022-09-25T06:02:40.125Z,9.18
2022-09-25T06:05:07.293Z,9.37
2022-09-25T06:07:34.237Z,9.46
2022-09-25T06:10:01.311Z,9.53
2022-09-25T06:12:31.927Z,9.67
2022-09-25T06:14:58.818Z,9.73
2022-09-25T06:17:25.682Z,9.94
2022-09-25T06:19:52.645Z,10.05
2022-09-25T06:22:19.543Z,9.90
2022-09-25T06:24:48.810Z,10.26
2022-09-25T06:27:15.795Z,10.36
2022-09-25T06:29:42.737Z,10.30
2022-09-25T06:32:09.757Z,10.51
2022-09-25T06:34:36.769Z,10.49
2022-09-25T06:37:04.013Z,10.84
2022-09-25T06:39:33.418Z,10.85
2022-09-25T06:42:00.489Z,10.79
2022-09-25T06:44:28.356Z,11.17
2022-09-25T06:46:55.429Z,11.13
2022-09-25T06:49:22.367Z,11.35
2022-09-25T06:51:51.218Z,11.16
2022-09-25T06:54:18.445Z,11.59
2022-09-25T06:56:49.733Z,11.51
2022-09-25T06:59:17.441Z,11.77
2022-09-25T07:01:44.503Z,11.88
2022-09-25T07:04:11.542Z,11.95
2022-09-25T07:06:38.815Z,11.81
2022-09-25T07:09:05.766Z,12.19
2022-09-25T07:11:32.753Z,12.25
2022-09-25T07:13:59.885Z,12.23
2022-09-25T07:16:30.748Z,12.35
2022-09-25T07:19:03.548Z,12.57
2022-09-25T07:21:32.431Z,12.78
2022-09-25T07:23:59.599Z,12.65
2022-09-25T07:26:29.802Z,12.76
2022-09-25T07:29:06.570Z,12.99
2022-09-25T07:31:40.192Z,13.14
2022-09-25T07:34:09.694Z,13.07
2022-09-25T07:36:38.845Z,13.39
2022-09-25T07:39:06.890Z,13.53
2022-09-25T07:41:34.808Z,13.58
2022-09-25T07:44:24.251Z,13.69
2022-09-25T07:46:49.076Z,13.96
2022-09-25T07:49:15.968Z,14.02
2022-09-25T07:51:42.943Z,14.03
2022-09-25T07:54:09.957Z,14.30
2022-09-25T07:56:38.372Z,14.30
2022-09-25T07:59:06.247Z,14.30
2022-09-25T08:01:33.463Z,14.58
2022-09-25T08:04:00.623Z,14.74
2022-09-25T08:06:27.593Z,14.74
2022-09-25T08:08:54.597Z,14.92
2022-09-25T08:11:23.397Z,14.99
2022-09-25T08:13:50.500Z,15.10
2022-09-25T08:16:19.174Z,15.33
2022-09-25T08:18:47.481Z,15.44
2022-09-25T08:21:17.112Z,15.39
2022-09-25T08:23:49.493Z,15.58
2022-09-25T08:26:17.423Z,15.80
2022-09-25T08:28:45.317Z,15.65
2022-09-25T08:31:14.736Z,16.05
2022-09-25T08:33:49.921Z,16.20
2022-09-25T08:36:17.190Z,16.32
2022-09-25T08:38:44.506Z,16.40
2022-09-25T08:41:21.342Z,16.58
2022-09-25T08:44:05.346Z,16.71
2022-09-25T08:47:02.044Z,16.64
2022-09-25T08:49:34.476Z,16.88
2022-09-25T08:52:07.018Z,16.99
2022-09-25T08:54:35.899Z,17.28
2022-09-25T08:57:38.082Z,17.47
2022-09-25T09:00:12.810Z,17.41
2022-09-25T09:02:54.431Z,17.24
2022-09-25T09:05:41.857Z,17.80
2022-09-25T09:08:18.168Z,17.94
2022-09-25T09:11:12.712Z,18.10
2022-09-25T09:13:49.770Z,18.23
2022-09-25T09:16:28.617Z,18.23
2022-09-25T09:18:56.926Z,18.50
2022-09-25T09:21:37.521Z,18.63
2022-09-25T09:24:29.088Z,18.80
2022-09-25T09:27:14.029Z,18.93
2022-09-25T09:29:57.746Z,19.05
2022-09-25T09:32:39.190Z,19.16
2022-09-25T09:35:33.985Z,19.27
2022-09-25T09:38:15.047Z,19.34
2022-09-25T09:41:03.844Z,19.40
2022-09-25T09:43:57.568Z,19.50
2022-09-25T09:46:38.412Z,19.19
2022-09-25T09:49:21.466Z,19.10
2022-09-25T09:51:51.487Z,19.27
2022-09-25T09:54:25.248Z,19.32
2022-09-25T09:56:55.480Z,19.22
2022-09-25T09:59:27.723Z,19.24
2022-09-25T10:02:16.553Z,19.30
2022-09-25T10:04:45.682Z,19.36
2022-09-25T10:07:16.889Z,19.62
2022-09-25T10:09:44.197Z,19.66
2022-09-25T10:12:24.318Z,19.45
2022-09-25T10:14:52.347Z,19.60
2022-09-25T10:17:24.347Z,19.60
2022-09-25T10:19:57.767Z,19.59
2022-09-25T10:22:28.398Z,19.62
2022-09-25T10:25:02.527Z,19.40
2022-09-25T10:27:29.472Z,19.57
2022-09-25T10:30:13.641Z,19.27
2022-09-25T10:33:07.206Z,19.64
2022-09-25T10:35:42.467Z,19.68
2022-09-25T10:38:25.172Z,19.51
2022-09-25T10:41:03.285Z,19.18
2022-09-25T10:43:30.529Z,19.71
2022-09-25T10:46:11.625Z,19.81
2022-09-25T10:48:58.179Z,19.87
2022-09-25T10:51:25.872Z,19.87
2022-09-25T10:54:13.134Z,19.94
2022-09-25T10:56:40.919Z,19.88
2022-09-25T10:59:18.594Z,19.79
2022-09-25T11:01:47.919Z,19.76
2022-09-25T11:04:20.701Z,19.91
2022-09-25T11:07:01.347Z,19.67
2022-09-25T11:09:30.200Z,19.73
2022-09-25T11:12:13.782Z,19.60
2022-09-25T11:14:55.399Z,19.49
2022-09-25T11:17:52.824Z,19.51
2022-09-25T11:20:42.652Z,19.56
2022-09-25T11:23:22.739Z,19.49
2022-09-25T11:26:07.148Z,19.11
2022-09-25T11:28:37.257Z,19.44
2022-09-25T11:31:30.189Z,19.53
2022-09-25T11:34:30.779Z,19.60
2022-09-25T11:37:10.981Z,19.65
2022-09-25T11:40:11.137Z,19.62
2022-09-25T11:43:05.763Z,19.80
2022-09-25T11:45:51.866Z,19.94
2022-09-25T11:48:25.134Z,20.22
2022-09-25T11:51:02.497Z,20.27
2022-09-25T11:53:35.284Z,20.33
2022-09-25T11:56:15.204Z,20.35
2022-09-25T11:59:02.277Z,20.48
2022-09-25T12:01:53.198Z,20.59
2022-09-25T12:04:43.666Z,20.64
2022-09-25T12:07:28.783Z,20.70
2022-09-25T12:10:15.969Z,20.68
2022-09-25T12:13:15.328Z,20.68
2022-09-25T12:15:57.013Z,20.46
2022-09-25T12:18:40.570Z,20.63
2022-09-25T12:21:12.643Z,20.80
2022-09-25T12:23:50.571Z,20.88
2022-09-25T12:26:23.324Z,20.85
2022-09-25T12:29:28.411Z,20.74
2022-09-25T12:32:46.017Z,20.80
2022-09-25T12:35:38.692Z,20.72
2022-09-25T12:38:35.033Z,20.67
2022-09-25T12:41:11.918Z,20.46
2022-09-25T12:43:48.564Z,20.36
2022-09-25T12:46:42.648Z,20.42
2022-09-25T12:49:23.338Z,20.51
2022-09-25T12:51:52.602Z,20.42
2022-09-25T12:54:38.337Z,20.58
2022-09-25T12:57:23.875Z,20.65
2022-09-25T12:59:59.268Z,20.68
2022-09-25T13:02:47.326Z,20.42
2022-09-25T13:05:34.448Z,20.50
2022-09-25T13:08:01.368Z,20.73
2022-09-25T13:10:38.596Z,20.76
2022-09-25T13:13:13.288Z,20.66
2022-09-25T13:15:42.584Z,20.67
2022-09-25T13:18:26.991Z,20.76
2022-09-25T13:20:56.013Z,20.81
2022-09-25T13:23:41.432Z,20.88
2022-09-25T13:26:18.616Z,20.89
2022-09-25T13:29:22.373Z,21.12
2022-09-25T13:31:50.240Z,21.11
2022-09-25T13:34:22.337Z,20.89
2022-09-25T13:36:58.571Z,20.98
2022-09-25T13:39:53.557Z,21.02
2022-09-25T13:42:44.148Z,21.16
2022-09-25T13:45:26.587Z,21.24
2022-09-25T13:48:10.167Z,21.28
2022-09-25T13:50:39.756Z,21.29
2022-09-25T13:53:18.963Z,21.33
2022-09-25T13:55:48.704Z,21.46
2022-09-25T13:58:27.146Z,21.54
2022-09-25T14:00:57.726Z,21.48
2022-09-25T14:03:44.757Z,21.71
2022-09-25T14:06:26.161Z,21.62
2022-09-25T14:08:57.338Z,21.45
2022-09-25T14:11:30.248Z,21.55
2022-09-25T14:14:00.219Z,21.69
2022-09-25T14:16:36.133Z,21.46
2022-09-25T14:19:04.997Z,21.78
2022-09-25T14:21:35.564Z,21.52
2022-09-25T14:24:24.829Z,21.64
2022-09-25T14:26:52.305Z,21.67
2022-09-25T14:29:23.927Z,21.53
2022-09-25T14:32:42.728Z,21.75
2022-09-25T14:35:19.382Z,21.68
2022-09-25T14:38:24.924Z,21.64
2022-09-25T14:41:18.835Z,21.58
2022-09-25T14:44:03.847Z,21.52
2022-09-25T14:46:34.327Z,21.31
2022-09-25T14:49:25.429Z,21.25
2022-09-25T14:51:55.693Z,21.31
2022-09-25T14:54:25.997Z,21.21
2022-09-25T14:56:57.600Z,21.06
2022-09-25T14:59:46.548Z,21.22
2022-09-25T15:02:18.912Z,21.08
2022-09-25T15:04:46.122Z,21.01
2022-09-25T15:07:17.449Z,20.98
2022-09-25T15:09:48.349Z,20.91
2022-09-25T15:12:30.376Z,20.51
2022-09-25T15:15:17.316Z,20.74
2022-09-25T15:17:59.309Z,20.56
2022-09-25T15:20:39.888Z,20.57
2022-09-25T15:23:14.452Z,20.22
2022-09-25T15:25:48.711Z,20.08
2022-09-25T15:28:18.573Z,20.18
2022-09-25T15:30:53.906Z,20.02
2022-09-25T15:33:29.828Z,19.73
2022-09-25T15:35:59.483Z,19.55
2022-09-25T15:38:33.238Z,19.81
2022-09-25T15:41:00.491Z,19.73
2022-09-25T15:43:27.831Z,19.58
2022-09-25T15:46:10.456Z,19.33
2022-09-25T15:48:40.841Z,19.52
2022-09-25T15:51:13.893Z,19.43
2022-09-25T15:53:44.423Z,19.14
2022-09-25T15:56:21.372Z,19.26
2022-09-25T15:58:58.715Z,19.19
2022-09-25T16:01:47.987Z,18.95
2022-09-25T16:04:42.846Z,18.93
2022-09-25T16:07:20.636Z,18.55
2022-09-25T16:09:47.739Z,18.47
2022-09-25T16:12:27.523Z,18.65
2022-09-25T16:14:55.960Z,18.31
2022-09-25T16:17:37.635Z,18.29
2022-09-25T16:20:42.935Z,18.28
2022-09-25T16:23:29.067Z,17.87
2022-09-25T16:25:58.658Z,17.61
2022-09-25T16:28:33.684Z,17.40
2022-09-25T16:31:00.786Z,17.47
2022-09-25T16:33:31.268Z,17.36
2022-09-25T16:36:16.210Z,17.05
2022-09-25T16:39:07.287Z,16.51
2022-09-25T16:41:36.156Z,16.52
2022-09-25T16:44:16.073Z,16.44
2022-09-25T16:46:44.953Z,16.55
2022-09-25T16:49:12.859Z,16.45
2022-09-25T16:51:46.319Z,16.30
2022-09-25T16:54:15.942Z,15.99
2022-09-25T16:56:44.216Z,16.19
2022-09-25T16:59:23.037Z,16.06
2022-09-25T17:01:55.954Z,15.81
2022-09-25T17:04:26.255Z,16.01
2022-09-25T17:06:54.456Z,16.00
2022-09-25T17:09:21.448Z,15.84
2022-09-25T17:11:50.324Z,15.69
2022-09-25T17:14:25.822Z,15.60
2022-09-25T17:16:54.617Z,15.79
2022-09-25T17:19:22.443Z,15.56
2022-09-25T17:21:51.587Z,15.35
2022-09-25T17:24:21.266Z,15.48
2022-09-25T17:26:48.299Z,15.45
2022-09-25T17:29:15.291Z,15.36
2022-09-25T17:31:42.323Z,15.28
2022-09-25T17:34:24.446Z,15.02
2022-09-25T17:36:52.748Z,14.99
2022-09-25T17:39:19.652Z,14.74
2022-09-25T17:41:47.543Z,14.91
2022-09-25T17:44:19.552Z,14.42
2022-09-25T17:46:46.826Z,14.66
2022-09-25T17:49:13.900Z,14.62
2022-09-25T17:51:41.138Z,14.57
2022-09-25T17:54:10.497Z,14.59
2022-09-25T17:56:39.394Z,14.44
2022-09-25T17:59:06.690Z,14.39
2022-09-25T18:01:39.240Z,14.40
2022-09-25T18:04:21.423Z,14.24
2022-09-25T18:06:48.875Z,14.12
2022-09-25T18:09:16.052Z,14.28
2022-09-25T18:11:43.770Z,14.18
2022-09-25T18:14:12.664Z,13.96
2022-09-25T18:16:42.318Z,13.99
2022-09-25T18:19:52.902Z,13.67
2022-09-25T18:22:21.967Z,13.90
2022-09-25T18:24:52.910Z,13.64
2022-09-25T18:27:22.902Z,13.50
2022-09-25T18:29:49.904Z,13.69
2022-09-25T18:32:16.943Z,13.39
2022-09-25T18:34:43.979Z,13.68
2022-09-25T18:37:11.656Z,13.38
2022-09-25T18:39:39.069Z,13.33
2022-09-25T18:42:06.357Z,13.17
2022-09-25T18:44:38.431Z,13.21
2022-09-25T18:47:08.653Z,13.07
2022-09-25T18:49:36.757Z,13.01
2022-09-25T18:52:04.038Z,12.72
2022-09-25T18:54:31.205Z,12.79
2022-09-25T18:56:58.817Z,12.86
2022-09-25T18:59:26.740Z,12.88
2022-09-25T19:01:55.867Z,12.85
2022-09-25T19:04:23.168Z,12.60
2022-09-25T19:06:50.304Z,12.57
2022-09-25T19:09:17.803Z,12.56
2022-09-25T19:11:45.508Z,12.48
2022-09-25T19:14:14.976Z,12.04
2022-09-25T19:16:42.193Z,12.42
2022-09-25T19:19:09.677Z,12.47
2022-09-25T19:21:36.649Z,12.32
2022-09-25T19:24:03.852Z,12.13
2022-09-25T19:26:31.201Z,12.13
2022-09-25T19:28:58.222Z,12.18
2022-09-25T19:31:26.797Z,12.21
2022-09-25T19:33:55.278Z,12.17
2022-09-25T19:36:30.366Z,12.08
2022-09-25T19:38:58.149Z,12.17
2022-09-25T19:41:28.251Z,12.18
2022-09-25T19:43:57.462Z,11.98
2022-09-25T19:46:26.114Z,9.74
2022-09-25T19:48:53.079Z,11.77
2022-09-25T19:51:22.467Z,12.03
2022-09-25T19:53:50.141Z,11.92
2022-09-25T19:56:19.282Z,12.09
2022-09-25T19:58:51.159Z,12.09
2022-09-25T20:01:22.436Z,11.78
2022-09-25T20:03:49.984Z,12.04
2022-09-25T20:06:17.834Z,11.82
2022-09-25T20:08:45.300Z,11.83
2022-09-25T20:11:23.808Z,11.89
2022-09-25T20:13:52.777Z,12.03
2022-09-25T20:16:24.317Z,12.03
2022-09-25T20:18:57.788Z,11.70
2022-09-25T20:21:26.601Z,12.01
2022-09-25T20:23:56.232Z,11.90
2022-09-25T20:26:23.617Z,11.88
2022-09-25T20:29:02.310Z,11.79
2022-09-25T20:31:31.148Z,11.65
2022-09-25T20:33:58.662Z,11.77
2022-09-25T20:36:25.653Z,11.54
2022-09-25T20:38:54.740Z,11.45
2022-09-25T20:41:23.136Z,11.67
2022-09-25T20:43:52.321Z,11.68
2022-09-25T20:46:20.494Z,11.50
2022-09-25T20:48:51.259Z,11.35
2022-09-25T20:51:21.339Z,11.35
2022-09-25T20:53:53.634Z,11.65
2022-09-25T20:56:22.039Z,11.57
2022-09-25T20:58:53.068Z,11.56
2022-09-25T21:01:23.530Z,11.58
2022-09-25T21:03:52.252Z,11.58
2022-09-25T21:06:25.293Z,11.44
2022-09-25T21:08:53.972Z,11.56
2022-09-25T21:11:21.867Z,11.38
2022-09-25T21:13:51.564Z,11.49
2022-09-25T21:16:20.077Z,11.42
2022-09-25T21:18:52.476Z,11.41
2022-09-25T21:21:19.631Z,11.42
2022-09-25T21:23:53.964Z,11.59
2022-09-25T21:26:22.923Z,11.41
2022-09-25T21:28:51.811Z,11.53
2022-09-25T21:31:34.799Z,11.40
2022-09-25T21:34:01.806Z,11.37
2022-09-25T21:36:29.064Z,11.18
2022-09-25T21:38:56.734Z,11.27
2022-09-25T21:41:25.379Z,11.41
2022-09-25T21:44:00.647Z,11.38
2022-09-25T21:46:28.723Z,11.20
2022-09-25T21:48:57.874Z,11.25
2022-09-25T21:51:28.478Z,11.41
2022-09-25T21:53:56.134Z,11.14
2022-09-25T21:56:25.702Z,11.23
2022-09-25T21:58:54.540Z,11.06
2022-09-25T22:01:27.560Z,11.25
2022-09-25T22:03:56.737Z,11.30
2022-09-25T22:06:29.069Z,11.29
2022-09-25T22:08:59.744Z,11.09
2022-09-25T22:11:27.723Z,11.29
2022-09-25T22:13:57.486Z,11.25
2022-09-25T22:16:25.730Z,11.32
2022-09-25T22:19:14.886Z,11.18
2022-09-25T22:21:43.602Z,11.18
2022-09-25T22:24:11.058Z,11.16
2022-09-25T22:26:40.642Z,11.16
2022-09-25T22:29:08.058Z,11.14
2022-09-25T22:31:36.166Z,11.08
2022-09-25T22:34:06.439Z,11.18
2022-09-25T22:36:36.048Z,11.12
2022-09-25T22:39:05.096Z,11.10
2022-09-25T22:41:32.769Z,11.08
2022-09-25T22:44:01.148Z,10.95
2022-09-25T22:46:29.020Z,10.94
2022-09-25T22:48:56.485Z,10.99
2022-09-25T22:51:25.360Z,10.99
2022-09-25T22:53:54.322Z,10.80
2022-09-25T22:56:25.417Z,10.93
2022-09-25T22:58:59.316Z,10.85
2022-09-25T23:01:48.427Z,10.81
2022-09-25T23:04:20.730Z,10.89
2022-09-25T23:06:48.591Z,10.89
2022-09-25T23:09:19.172Z,10.78
2022-09-25T23:11:46.764Z,10.81
2022-09-25T23:14:17.289Z,10.79
2022-09-25T23:16:46.421Z,10.69
2022-09-25T23:19:14.435Z,10.67
2022-09-25T23:21:41.738Z,10.53
2022-09-25T23:24:11.925Z,10.82
2022-09-25T23:26:39.063Z,10.51
2022-09-25T23:29:06.570Z,10.56
2022-09-25T23:31:33.999Z,10.50
2022-09-25T23:34:02.327Z,10.64
2022-09-25T23:36:30.329Z,10.49
2022-09-25T23:39:00.383Z,10.67
2022-09-25T23:41:30.552Z,10.51
2022-09-25T23:43:58.919Z,10.33
2022-09-25T23:46:28.682Z,10.53
2022-09-25T23:48:56.028Z,10.02
2022-09-25T23:51:23.716Z,10.23
2022-09-25T23:53:50.758Z,9.58
2022-09-25T23:56:20.491Z,10.58
2022-09-25T23:58:48.713Z,10.34
